createdAt,value
2019-02-19T00:01:33.092Z,98466.75
2019-02-19T00:03:59.621Z,98463.23
2019-02-19T00:06:26.145Z,98464.52
2019-02-19T00:08:52.955Z,98465.88
2019-02-19T00:11:19.535Z,98465.00
2019-02-19T00:13:46.018Z,98462.84
2019-02-19T00:16:12.497Z,98472.57
2019-02-19T00:18:39.025Z,98460.02
2019-02-19T00:21:05.781Z,98464.26
2019-02-19T00:23:32.661Z,98464.33
2019-02-19T00:25:59.189Z,98465.33
2019-02-19T00:28:25.685Z,98458.25
2019-02-19T00:30:52.522Z,98457.38
2019-02-19T00:33:19.032Z,98460.50
2019-02-19T00:35:45.531Z,98459.68
2019-02-19T00:38:12.404Z,98450.84
2019-02-19T00:40:38.880Z,98449.87
2019-02-19T00:43:05.479Z,98449.40
2019-02-19T00:45:32.127Z,98445.22
2019-02-19T00:48:03.231Z,98444.09
2019-02-19T00:50:29.761Z,98440.92
2019-02-19T00:52:56.286Z,98449.54
2019-02-19T00:55:22.759Z,98447.48
2019-02-19T00:57:49.337Z,98448.77
2019-02-19T01:00:16.058Z,98456.41
2019-02-19T01:02:42.528Z,98448.21
2019-02-19T01:05:09.093Z,98448.66
2019-02-19T01:07:35.726Z,98448.70
2019-02-19T01:10:02.306Z,98448.51
2019-02-19T01:12:28.862Z,98455.45
2019-02-19T01:14:55.457Z,98455.23
2019-02-19T01:17:22.015Z,98454.75
2019-02-19T01:19:48.845Z,98450.12
2019-02-19T01:22:15.746Z,98451.08
2019-02-19T01:24:42.591Z,98450.98
2019-02-19T01:27:09.201Z,98444.59
2019-02-19T01:29:35.691Z,98447.80
2019-02-19T01:32:02.203Z,98446.13
2019-02-19T01:34:28.767Z,98443.16
2019-02-19T01:36:55.271Z,98440.73
2019-02-19T01:39:21.916Z,98436.09
2019-02-19T01:41:48.509Z,98441.09
2019-02-19T01:44:15.157Z,98446.05
2019-02-19T01:46:41.680Z,98444.84
2019-02-19T01:49:08.199Z,98434.92
2019-02-19T01:51:34.693Z,98434.11
2019-02-19T01:54:01.258Z,98435.47
2019-02-19T01:56:28.095Z,98437.23
2019-02-19T01:58:54.994Z,98437.28
2019-02-19T02:01:21.509Z,98430.34
2019-02-19T02:03:48.065Z,98429.92
2019-02-19T02:06:14.676Z,98432.13
2019-02-19T02:08:41.248Z,98422.09
2019-02-19T02:11:08.875Z,98419.00
2019-02-19T02:13:37.719Z,98423.41
2019-02-19T02:16:04.240Z,98423.05
2019-02-19T02:18:31.306Z,98423.05
2019-02-19T02:20:57.897Z,98419.54
2019-02-19T02:23:24.395Z,98416.11
2019-02-19T02:25:51.041Z,98414.38
2019-02-19T02:28:17.853Z,98413.92
2019-02-19T02:30:44.405Z,98416.53
2019-02-19T02:33:10.867Z,98420.94
2019-02-19T02:35:37.538Z,98422.69
2019-02-19T02:38:04.088Z,98427.93
2019-02-19T02:40:30.914Z,98429.67
2019-02-19T02:43:00.221Z,98429.67
2019-02-19T02:45:26.816Z,98434.00
2019-02-19T02:47:53.695Z,98428.31
2019-02-19T02:50:20.222Z,98425.71
2019-02-19T02:52:47.003Z,98426.13
2019-02-19T02:55:13.736Z,98417.42
2019-02-19T02:57:40.263Z,98424.34
2019-02-19T03:00:07.609Z,98422.66
2019-02-19T03:02:34.089Z,98424.41
2019-02-19T03:05:00.583Z,98424.45
2019-02-19T03:07:55.892Z,98423.59
2019-02-19T03:10:22.872Z,98421.91
2019-02-19T03:12:49.451Z,98417.98
2019-02-19T03:15:18.981Z,98414.91
2019-02-19T03:17:46.399Z,98415.79
2019-02-19T03:20:16.424Z,98414.09
2019-02-19T03:22:42.992Z,98409.75
2019-02-19T03:25:09.532Z,98411.45
2019-02-19T03:27:36.019Z,98414.39
2019-02-19T03:30:03.077Z,98405.22
2019-02-19T03:32:29.695Z,98409.88
2019-02-19T03:34:56.339Z,98407.55
2019-02-19T03:37:30.981Z,98407.09
2019-02-19T03:39:57.533Z,98409.70
2019-02-19T03:42:24.048Z,98406.55
2019-02-19T03:44:50.575Z,98407.74
2019-02-19T03:47:19.876Z,98417.70
2019-02-19T03:49:46.536Z,98416.36
2019-02-19T03:52:13.054Z,98418.48
2019-02-19T03:54:39.544Z,98419.38
2019-02-19T03:57:06.471Z,98418.39
2019-02-19T03:59:33.028Z,98420.14
2019-02-19T04:01:59.623Z,98427.09
2019-02-19T04:04:26.572Z,98423.09
2019-02-19T04:06:53.103Z,98427.45
2019-02-19T04:09:19.622Z,98416.48
2019-02-19T04:11:47.217Z,98426.05
2019-02-19T04:14:13.747Z,98428.73
2019-02-19T04:16:40.269Z,98432.25
2019-02-19T04:19:06.738Z,98424.04
2019-02-19T04:21:33.391Z,98427.48
2019-02-19T04:23:59.901Z,98430.12
2019-02-19T04:26:26.426Z,98428.38
2019-02-19T04:28:53.169Z,98430.52
2019-02-19T04:31:19.715Z,98431.36
2019-02-19T04:33:46.185Z,98435.28
2019-02-19T04:36:12.713Z,98433.09
2019-02-19T04:38:39.175Z,98430.56
2019-02-19T04:41:05.746Z,98442.59
2019-02-19T04:43:33.300Z,98440.41
2019-02-19T04:45:59.843Z,98444.28
2019-02-19T04:48:26.338Z,98442.17
2019-02-19T04:50:52.821Z,98439.22
2019-02-19T04:53:19.333Z,98434.14
2019-02-19T04:55:46.191Z,98432.50
2019-02-19T04:58:17.091Z,98438.61
2019-02-19T05:00:44.860Z,98439.13
2019-02-19T05:03:11.376Z,98436.99
2019-02-19T05:05:37.867Z,98438.46
2019-02-19T05:08:04.388Z,98438.49
2019-02-19T05:10:31.270Z,98435.85
2019-02-19T05:12:57.782Z,98437.11
2019-02-19T05:15:47.805Z,98437.95
2019-02-19T05:18:14.297Z,98436.30
2019-02-19T05:20:40.823Z,98432.94
2019-02-19T05:23:07.568Z,98428.23
2019-02-19T05:25:34.356Z,98433.06
2019-02-19T05:28:01.351Z,98436.58
2019-02-19T05:30:28.211Z,98433.10
2019-02-19T05:32:57.129Z,98434.84
2019-02-19T05:35:23.624Z,98426.61
2019-02-19T05:37:50.300Z,98423.56
2019-02-19T05:40:16.836Z,98420.05
2019-02-19T05:42:43.349Z,98420.92
2019-02-19T05:45:09.957Z,98421.30
2019-02-19T05:47:36.457Z,98429.13
2019-02-19T05:50:04.097Z,98429.13
2019-02-19T05:52:33.675Z,98437.34
2019-02-19T05:55:00.341Z,98436.84
2019-02-19T05:57:26.832Z,98433.78
2019-02-19T05:59:58.518Z,98433.75
2019-02-19T06:02:28.045Z,98434.61
2019-02-19T06:04:56.543Z,98439.39
2019-02-19T06:07:23.558Z,98442.80
2019-02-19T06:09:50.106Z,98448.34
2019-02-19T06:12:16.674Z,98446.94
2019-02-19T06:14:43.504Z,98450.78
2019-02-19T06:17:10.009Z,98454.19
2019-02-19T06:19:36.791Z,98451.46
2019-02-19T06:22:04.159Z,98448.84
2019-02-19T06:24:31.119Z,98451.46
2019-02-19T06:26:58.650Z,98459.34
2019-02-19T06:29:25.191Z,98455.38
2019-02-19T06:31:51.825Z,98464.53
2019-02-19T06:34:19.238Z,98470.68
2019-02-19T06:36:47.297Z,98465.00
2019-02-19T06:39:20.728Z,98463.70
2019-02-19T06:41:47.876Z,98471.13
2019-02-19T06:44:14.811Z,98472.01
2019-02-19T06:46:42.380Z,98474.16
2019-02-19T06:49:09.304Z,98479.00
2019-02-19T06:51:35.947Z,98482.47
2019-02-19T06:54:05.201Z,98487.70
2019-02-19T06:56:34.387Z,98496.80
2019-02-19T06:59:04.747Z,98495.93
2019-02-19T07:02:03.070Z,98504.99
2019-02-19T07:04:35.123Z,98499.27
2019-02-19T07:07:01.861Z,98497.54
2019-02-19T07:09:28.591Z,98507.03
2019-02-19T07:11:55.598Z,98510.81
2019-02-19T07:14:23.070Z,98517.81
2019-02-19T07:16:52.445Z,98506.02
2019-02-19T07:19:20.187Z,98508.20
2019-02-19T07:21:48.190Z,98512.98
2019-02-19T07:24:15.434Z,98519.53
2019-02-19T07:26:42.035Z,98515.66
2019-02-19T07:29:08.794Z,98504.84
2019-02-19T07:31:35.420Z,98519.24
2019-02-19T07:34:02.921Z,98521.94
2019-02-19T07:36:29.464Z,98532.41
2019-02-19T07:38:56.414Z,98529.80
2019-02-19T07:41:25.600Z,98521.97
2019-02-19T07:43:52.142Z,98532.02
2019-02-19T07:46:19.137Z,98525.89
2019-02-19T07:48:46.730Z,98528.08
2019-02-19T07:51:17.332Z,98528.09
2019-02-19T07:53:44.019Z,98532.84
2019-02-19T07:56:18.005Z,98535.41
2019-02-19T07:58:44.796Z,98538.41
2019-02-19T08:01:11.837Z,98537.48
2019-02-19T08:03:45.068Z,98530.03
2019-02-19T08:06:11.762Z,98526.50
2019-02-19T08:08:41.513Z,98530.84
2019-02-19T08:11:08.937Z,98532.13
2019-02-19T08:13:42.027Z,98540.42
2019-02-19T08:16:08.437Z,98532.16
2019-02-19T08:18:35.849Z,98529.51
2019-02-19T08:21:02.782Z,98536.06
2019-02-19T08:23:30.070Z,98537.36
2019-02-19T08:25:57.747Z,98536.44
2019-02-19T08:28:25.064Z,98542.55
2019-02-19T08:30:52.533Z,98549.93
2019-02-19T08:33:26.613Z,98562.58
2019-02-19T08:35:55.936Z,98548.58
2019-02-19T08:38:24.850Z,98545.10
2019-02-19T08:40:51.689Z,98549.41
2019-02-19T08:43:18.311Z,98550.22
2019-02-19T08:45:44.994Z,98544.09
2019-02-19T08:48:11.826Z,98556.67
2019-02-19T08:50:38.638Z,98557.96
2019-02-19T08:53:05.451Z,98563.14
2019-02-19T08:58:00.031Z,98578.27
2019-02-19T09:00:26.862Z,98580.05
2019-02-19T09:02:59.633Z,98577.89
2019-02-19T09:05:26.243Z,98578.71
2019-02-19T09:07:52.776Z,98583.41
2019-02-19T09:10:19.694Z,98590.77
2019-02-19T09:12:46.504Z,98589.89
2019-02-19T09:15:25.890Z,98590.27
2019-02-19T09:18:01.098Z,98594.55
2019-02-19T09:20:34.684Z,98600.53
2019-02-19T09:23:01.384Z,98594.39
2019-02-19T09:25:27.926Z,98610.93
2019-02-19T09:27:54.765Z,98606.58
2019-02-19T09:30:21.917Z,98609.56
2019-02-19T09:32:48.742Z,98615.21
2019-02-19T09:35:15.521Z,98610.08
2019-02-19T09:37:42.577Z,98610.51
2019-02-19T09:40:09.608Z,98601.86
2019-02-19T09:42:36.220Z,98617.20
2019-02-19T09:45:03.163Z,98616.00
2019-02-19T09:47:29.829Z,98622.14
2019-02-19T09:49:56.352Z,98623.85
2019-02-19T09:52:24.777Z,98624.78
2019-02-19T09:54:51.637Z,98633.56
2019-02-19T09:57:18.468Z,98634.03
2019-02-19T09:59:45.220Z,98634.03
2019-02-19T10:02:11.776Z,98630.53
2019-02-19T10:04:38.726Z,98643.14
2019-02-19T10:07:05.602Z,98641.36
2019-02-19T10:09:32.580Z,98639.63
2019-02-19T10:11:59.792Z,98648.33
2019-02-19T10:14:26.364Z,98649.28
2019-02-19T10:16:53.036Z,98652.78
2019-02-19T10:19:19.627Z,98651.96
2019-02-19T10:21:46.509Z,98659.80
2019-02-19T10:24:13.670Z,98663.73
2019-02-19T10:26:40.789Z,98665.04
2019-02-19T10:29:09.292Z,98675.03
2019-02-19T10:31:35.856Z,98671.14
2019-02-19T10:34:02.723Z,98668.98
2019-02-19T10:36:29.547Z,98671.66
2019-02-19T10:38:56.361Z,98669.97
2019-02-19T10:41:24.232Z,98670.08
2019-02-19T10:43:50.872Z,98667.88
2019-02-19T10:46:17.430Z,98666.20
2019-02-19T10:48:44.188Z,98668.41
2019-02-19T10:51:11.053Z,98669.73
2019-02-19T10:53:37.856Z,98669.34
2019-02-19T10:56:04.553Z,98672.43
2019-02-19T10:58:31.239Z,98666.80
2019-02-19T11:00:58.264Z,98666.84
2019-02-19T11:03:24.983Z,98667.69
2019-02-19T11:05:51.840Z,98667.32
2019-02-19T11:08:18.504Z,98660.36
2019-02-19T11:10:45.190Z,98656.47
2019-02-19T11:13:12.847Z,98652.09
2019-02-19T11:15:39.473Z,98651.64
2019-02-19T11:18:06.145Z,98651.20
2019-02-19T11:20:32.692Z,98649.43
2019-02-19T11:22:59.285Z,98657.27
2019-02-19T11:25:26.362Z,98648.95
2019-02-19T11:27:53.183Z,98658.53
2019-02-19T11:30:20.615Z,98656.33
2019-02-19T11:32:47.427Z,98658.50
2019-02-19T11:35:14.076Z,98656.72
2019-02-19T11:37:41.356Z,98646.70
2019-02-19T11:40:09.880Z,98651.07
2019-02-19T11:42:36.720Z,98653.23
2019-02-19T11:45:03.647Z,98651.92
2019-02-19T11:47:30.503Z,98655.77
2019-02-19T11:49:58.297Z,98656.60
2019-02-19T11:52:25.274Z,98652.66
2019-02-19T11:54:51.964Z,98654.78
2019-02-19T11:57:18.483Z,98656.03
2019-02-19T11:59:46.463Z,98650.34
2019-02-19T12:02:14.858Z,98658.10
2019-02-19T12:04:41.435Z,98655.86
2019-02-19T12:07:08.200Z,98663.22
2019-02-19T12:09:34.934Z,98653.58
2019-02-19T12:12:01.836Z,98645.66
2019-02-19T12:14:28.570Z,98641.23
2019-02-19T12:16:55.275Z,98644.63
2019-02-19T12:19:21.809Z,98636.68
2019-02-19T12:21:48.655Z,98638.29
2019-02-19T12:24:17.354Z,98628.64
2019-02-19T12:26:43.917Z,98624.23
2019-02-19T12:29:10.545Z,98624.91
2019-02-19T12:31:37.490Z,98610.86
2019-02-19T12:34:04.037Z,98606.48
2019-02-19T12:36:30.646Z,98611.73
2019-02-19T12:38:57.292Z,98603.05
2019-02-19T12:41:24.170Z,98608.17
2019-02-19T12:43:51.092Z,98605.79
2019-02-19T12:46:21.900Z,98607.96
2019-02-19T12:48:54.421Z,98603.06
2019-02-19T12:51:17.165Z,98595.39
2019-02-19T12:53:43.690Z,98596.03
2019-02-19T12:56:10.317Z,98589.77
2019-02-19T12:58:36.982Z,98584.77
2019-02-19T13:01:04.525Z,98589.70
2019-02-19T13:03:31.354Z,98585.11
2019-02-19T13:05:58.137Z,98576.42
2019-02-19T13:08:24.677Z,98577.50
2019-02-19T13:10:51.735Z,98576.71
2019-02-19T13:13:18.297Z,98573.13
2019-02-19T13:15:45.484Z,98570.70
2019-02-19T13:18:12.004Z,98578.22
2019-02-19T13:20:38.587Z,98572.70
2019-02-19T13:23:05.190Z,98571.47
2019-02-19T13:25:31.732Z,98565.45
2019-02-19T13:27:58.627Z,98561.52
2019-02-19T13:30:25.223Z,98564.45
2019-02-19T13:32:55.204Z,98558.80
2019-02-19T13:35:23.989Z,98559.75
2019-02-19T13:37:50.946Z,98556.39
2019-02-19T13:40:17.797Z,98561.94
2019-02-19T13:42:45.023Z,98564.41
2019-02-19T13:45:13.877Z,98559.75
2019-02-19T13:47:43.080Z,98571.72
2019-02-19T13:50:12.354Z,98571.57
2019-02-19T13:52:52.962Z,98580.06
2019-02-19T13:55:22.951Z,98582.33
2019-02-19T13:57:49.571Z,98596.56
2019-02-19T14:00:19.900Z,98598.34
2019-02-19T14:02:47.892Z,98608.98
2019-02-19T14:05:14.966Z,98617.98
2019-02-19T14:07:42.275Z,98623.34
2019-02-19T14:10:09.106Z,98621.66
2019-02-19T14:12:35.753Z,98624.45
2019-02-19T14:15:18.156Z,98608.23
2019-02-19T14:17:45.065Z,98617.54
2019-02-19T14:20:21.031Z,98622.94
2019-02-19T14:23:00.940Z,98619.39
2019-02-19T14:25:49.942Z,98616.77
2019-02-19T14:28:42.337Z,98623.14
2019-02-19T14:31:24.306Z,98627.20
2019-02-19T14:34:19.445Z,98626.15
2019-02-19T14:37:12.789Z,98622.40
2019-02-19T14:40:15.622Z,98624.55
2019-02-19T14:43:14.484Z,98623.44
2019-02-19T14:46:00.723Z,98625.64
2019-02-19T14:48:50.784Z,98633.36
2019-02-19T14:51:37.037Z,98631.45
2019-02-19T14:54:38.528Z,98634.76
2019-02-19T14:57:15.545Z,98637.67
2019-02-19T14:59:52.585Z,98642.47
2019-02-19T15:02:41.677Z,98629.84
2019-02-19T15:05:26.736Z,98633.03
2019-02-19T15:08:16.658Z,98632.50
2019-02-19T15:11:01.588Z,98635.05
2019-02-19T15:13:48.019Z,98631.02
2019-02-19T15:16:43.573Z,98644.40
2019-02-19T15:19:22.595Z,98647.05
2019-02-19T15:22:02.857Z,98645.86
2019-02-19T15:24:47.767Z,98644.16
2019-02-19T15:27:34.018Z,98638.59
2019-02-19T15:30:31.845Z,98644.33
2019-02-19T15:33:13.613Z,98638.73
2019-02-19T15:35:50.017Z,98646.25
2019-02-19T15:38:35.794Z,98641.07
2019-02-19T15:41:34.351Z,98648.50
2019-02-19T15:44:11.532Z,98641.91
2019-02-19T15:46:59.711Z,98639.30
2019-02-19T15:49:47.905Z,98643.69
2019-02-19T15:52:36.548Z,98642.84
2019-02-19T15:55:21.512Z,98635.89
2019-02-19T15:58:06.318Z,98638.55
2019-02-19T16:01:04.653Z,98634.22
2019-02-19T16:03:40.271Z,98630.34
2019-02-19T16:06:31.983Z,98630.84
2019-02-19T16:09:07.558Z,98634.89
2019-02-19T16:11:41.815Z,98643.61
2019-02-19T16:14:16.860Z,98633.66
2019-02-19T16:17:06.388Z,98638.97
2019-02-19T16:20:01.342Z,98639.50
2019-02-19T16:22:50.689Z,98648.70
2019-02-19T16:25:35.580Z,98648.74
2019-02-19T16:28:30.852Z,98651.46
2019-02-19T16:31:03.754Z,98645.84
2019-02-19T16:33:47.193Z,98651.10
2019-02-19T16:36:32.237Z,98650.67
2019-02-19T16:39:10.559Z,98659.42
2019-02-19T16:41:49.488Z,98658.63
2019-02-19T16:44:22.991Z,98655.62
2019-02-19T16:47:08.236Z,98663.91
2019-02-19T16:50:06.919Z,98670.87
2019-02-19T16:52:30.305Z,98660.48
2019-02-19T16:55:05.452Z,98662.24
2019-02-19T16:57:43.438Z,98664.89
2019-02-19T17:00:24.458Z,98671.44
2019-02-19T17:03:02.516Z,98673.58
2019-02-19T17:05:51.512Z,98678.85
2019-02-19T17:08:52.594Z,98676.23
2019-02-19T17:11:24.794Z,98684.95
2019-02-19T17:14:04.736Z,98685.80
2019-02-19T17:16:47.890Z,98686.68
2019-02-19T17:19:40.098Z,98688.41
2019-02-19T17:22:25.120Z,98692.77
2019-02-19T17:25:00.823Z,98693.20
2019-02-19T17:27:46.615Z,98695.38
2019-02-19T17:30:31.474Z,98697.13
2019-02-19T17:33:32.891Z,98691.95
2019-02-19T17:36:24.856Z,98689.75
2019-02-19T17:39:05.534Z,98699.34
2019-02-19T17:41:40.921Z,98706.73
2019-02-19T17:44:16.870Z,98704.57
2019-02-19T17:46:53.797Z,98715.89
2019-02-19T17:49:38.254Z,98712.39
2019-02-19T17:52:27.901Z,98709.33
2019-02-19T17:55:01.382Z,98718.46
2019-02-19T17:57:48.384Z,98726.30
2019-02-19T18:00:22.972Z,98723.70
2019-02-19T18:02:57.718Z,98715.00
2019-02-19T18:05:46.702Z,98714.13
2019-02-19T18:08:33.218Z,98722.40
2019-02-19T18:11:19.882Z,98712.39
2019-02-19T18:13:51.699Z,98714.13
2019-02-19T18:16:36.493Z,98717.16
2019-02-19T18:19:03.028Z,98722.39
2019-02-19T18:21:29.550Z,98727.19
2019-02-19T18:23:56.142Z,98725.43
2019-02-19T18:26:22.693Z,98728.91
2019-02-19T18:28:50.264Z,98731.09
2019-02-19T18:31:16.839Z,98734.58
2019-02-19T18:33:43.597Z,98741.08
2019-02-19T18:36:10.089Z,98736.31
2019-02-19T18:38:36.744Z,98741.06
2019-02-19T18:41:03.782Z,98744.98
2019-02-19T18:43:30.273Z,98752.83
2019-02-19T18:45:56.802Z,98746.75
2019-02-19T18:48:24.055Z,98752.83
2019-02-19T18:50:58.138Z,98750.66
2019-02-19T18:53:20.389Z,98758.91
2019-02-19T18:55:48.056Z,98755.00
2019-02-19T18:58:22.894Z,98766.30
2019-02-19T19:00:50.008Z,98765.86
2019-02-19T19:03:16.648Z,98770.64
2019-02-19T19:05:43.564Z,98770.19
2019-02-19T19:08:12.145Z,98771.49
2019-02-19T19:10:50.433Z,98771.48
2019-02-19T19:13:17.850Z,98771.07
2019-02-19T19:15:45.575Z,98770.19
2019-02-19T19:18:12.117Z,98778.45
2019-02-19T19:20:38.692Z,98784.09
2019-02-19T19:23:05.369Z,98787.56
2019-02-19T19:25:32.281Z,98793.62
2019-02-19T19:27:59.082Z,98791.88
2019-02-19T19:30:25.597Z,98789.71
2019-02-19T19:32:54.329Z,98795.77
2019-02-19T19:35:20.970Z,98793.60
2019-02-19T19:37:47.586Z,98801.42
2019-02-19T19:40:14.665Z,98799.66
2019-02-19T19:42:41.524Z,98804.86
2019-02-19T19:45:08.463Z,98807.44
2019-02-19T19:47:34.961Z,98807.44
2019-02-19T19:50:03.350Z,98804.41
2019-02-19T19:52:30.453Z,98806.14
2019-02-19T19:54:57.800Z,98806.58
2019-02-19T19:57:24.394Z,98811.76
2019-02-19T19:59:50.978Z,98811.76
2019-02-19T20:02:19.955Z,98805.27
2019-02-19T20:04:46.530Z,98806.60
2019-02-19T20:07:13.078Z,98807.50
2019-02-19T20:09:39.654Z,98800.98
2019-02-19T20:12:06.616Z,98804.02
2019-02-19T20:14:33.209Z,98806.65
2019-02-19T20:16:59.857Z,98808.80
2019-02-19T20:19:26.591Z,98810.08
2019-02-19T20:21:53.400Z,98814.42
2019-02-19T20:24:20.015Z,98813.55
2019-02-19T20:26:46.761Z,98821.77
2019-02-19T20:29:13.504Z,98824.78
2019-02-19T20:31:40.057Z,98825.65
2019-02-19T20:34:06.790Z,98819.14
2019-02-19T20:36:33.396Z,98818.67
2019-02-19T20:39:00.046Z,98822.58
2019-02-19T20:41:26.772Z,98823.02
2019-02-19T20:43:53.387Z,98824.75
2019-02-19T20:46:20.086Z,98823.45
2019-02-19T20:48:47.186Z,98826.52
2019-02-19T20:51:13.820Z,98829.55
2019-02-19T20:53:40.632Z,98833.86
2019-02-19T20:56:07.150Z,98828.69
2019-02-19T20:58:35.464Z,98830.42
2019-02-19T21:01:02.579Z,98838.67
2019-02-19T21:03:29.678Z,98832.59
2019-02-19T21:05:56.189Z,98821.74
2019-02-19T21:08:22.799Z,98830.89
2019-02-19T21:10:49.430Z,98826.55
2019-02-19T21:13:17.030Z,98819.17
2019-02-19T21:15:43.601Z,98825.71
2019-02-19T21:18:10.182Z,98832.66
2019-02-19T21:20:38.858Z,98836.97
2019-02-19T21:23:05.473Z,98833.06
2019-02-19T21:25:32.075Z,98832.59
2019-02-19T21:27:58.720Z,98830.39
2019-02-19T21:30:25.504Z,98829.05
2019-02-19T21:32:52.041Z,98834.27
2019-02-19T21:35:18.857Z,98835.56
2019-02-19T21:37:45.536Z,98838.59
2019-02-19T21:40:16.009Z,98834.27
2019-02-19T21:42:42.500Z,98841.59
2019-02-19T21:45:09.134Z,98835.91
2019-02-19T21:47:35.665Z,98832.88
2019-02-19T21:50:02.530Z,98833.31
2019-02-19T21:52:29.066Z,98838.55
2019-02-19T21:54:55.659Z,98844.20
2019-02-19T21:57:22.186Z,98842.47
2019-02-19T21:59:48.762Z,98845.55
2019-02-19T22:02:16.578Z,98846.41
2019-02-19T22:04:43.225Z,98842.08
2019-02-19T22:07:09.696Z,98847.28
2019-02-19T22:09:36.222Z,98853.31
2019-02-19T22:12:03.101Z,98849.84
2019-02-19T22:14:29.630Z,98848.97
2019-02-19T22:16:58.465Z,98851.53
2019-02-19T22:19:24.948Z,98848.50
2019-02-19T22:22:03.209Z,98851.48
2019-02-19T22:24:34.332Z,98848.41
2019-02-19T22:27:01.211Z,98862.70
2019-02-19T22:29:28.008Z,98854.42
2019-02-19T22:31:54.462Z,98852.25
2019-02-19T22:34:20.992Z,98855.72
2019-02-19T22:36:47.544Z,98866.08
2019-02-19T22:39:14.048Z,98859.46
2019-02-19T22:41:40.552Z,98862.85
2019-02-19T22:44:07.063Z,98864.94
2019-02-19T22:46:33.595Z,98862.27
2019-02-19T22:49:00.068Z,98863.06
2019-02-19T22:51:26.574Z,98866.48
2019-02-19T22:54:00.312Z,98861.33
2019-02-19T22:56:32.579Z,98860.89
2019-02-19T22:58:59.226Z,98866.54
2019-02-19T23:01:38.682Z,98869.56
2019-02-19T23:04:05.163Z,98872.95
2019-02-19T23:06:37.633Z,98876.86
2019-02-19T23:09:05.315Z,98877.80
2019-02-19T23:11:31.943Z,98878.68
2019-02-19T23:13:58.628Z,98876.59
2019-02-19T23:16:25.145Z,98877.09
2019-02-19T23:18:51.636Z,98876.72
2019-02-19T23:21:18.389Z,98875.05
2019-02-19T23:23:44.936Z,98878.16
2019-02-19T23:26:11.372Z,98882.55
2019-02-19T23:28:37.833Z,98883.92
2019-02-19T23:31:04.430Z,98890.47
2019-02-19T23:33:30.867Z,98887.45
2019-02-19T23:36:03.916Z,98888.79
2019-02-19T23:38:30.432Z,98887.11
2019-02-19T23:40:56.934Z,98890.16
2019-02-19T23:43:23.870Z,98900.61
2019-02-19T23:45:50.807Z,98902.78
2019-02-19T23:48:17.271Z,98904.95
2019-02-19T23:50:43.787Z,98901.87
2019-02-19T23:53:10.793Z,98906.59
2019-02-19T23:55:37.466Z,98900.94
2019-02-19T23:58:03.922Z,98901.77
